sensor_id;sensor_type;location;lat;lon;timestamp;temperature;humidity
43151;DHT22;28755;51.478;5.702;2023-11-22T00:00:10;4.80;99.90
43151;DHT22;28755;51.478;5.702;2023-11-22T00:02:36;4.80;99.90
43151;DHT22;28755;51.478;5.702;2023-11-22T00:05:03;4.80;99.90
43151;DHT22;28755;51.478;5.702;2023-11-22T00:07:30;4.80;99.90
43151;DHT22;28755;51.478;5.702;2023-11-22T00:09:56;4.80;99.90
43151;DHT22;28755;51.478;5.702;2023-11-22T00:12:22;4.80;99.90
43151;DHT22;28755;51.478;5.702;2023-11-22T00:14:48;4.90;99.90
43151;DHT22;28755;51.478;5.702;2023-11-22T00:17:14;4.80;99.90
43151;DHT22;28755;51.478;5.702;2023-11-22T00:19:44;4.90;99.90
43151;DHT22;28755;51.478;5.702;2023-11-22T00:22:10;4.90;99.90
43151;DHT22;28755;51.478;5.702;2023-11-22T00:24:40;4.90;99.90
43151;DHT22;28755;51.478;5.702;2023-11-22T00:27:06;4.80;99.90
43151;DHT22;28755;51.478;5.702;2023-11-22T00:29:32;4.80;99.90
43151;DHT22;28755;51.478;5.702;2023-11-22T00:31:58;4.80;99.90
43151;DHT22;28755;51.478;5.702;2023-11-22T00:34:27;4.80;99.90
43151;DHT22;28755;51.478;5.702;2023-11-22T00:36:52;4.70;99.90
43151;DHT22;28755;51.478;5.702;2023-11-22T00:39:18;4.60;99.90
43151;DHT22;28755;51.478;5.702;2023-11-22T00:41:44;4.50;99.90
43151;DHT22;28755;51.478;5.702;2023-11-22T00:44:10;4.50;99.90
43151;DHT22;28755;51.478;5.702;2023-11-22T00:46:36;4.50;99.90
43151;DHT22;28755;51.478;5.702;2023-11-22T00:49:05;4.50;99.90
43151;DHT22;28755;51.478;5.702;2023-11-22T00:51:31;4.40;99.90
43151;DHT22;28755;51.478;5.702;2023-11-22T00:53:58;4.40;99.90
43151;DHT22;28755;51.478;5.702;2023-11-22T00:56:24;4.40;99.90
43151;DHT22;28755;51.478;5.702;2023-11-22T00:58:49;4.30;99.90
43151;DHT22;28755;51.478;5.702;2023-11-22T01:01:16;4.20;99.90
43151;DHT22;28755;51.478;5.702;2023-11-22T01:03:43;4.20;99.90
43151;DHT22;28755;51.478;5.702;2023-11-22T01:06:09;4.20;99.90
43151;DHT22;28755;51.478;5.702;2023-11-22T01:08:35;4.20;99.90
43151;DHT22;28755;51.478;5.702;2023-11-22T01:11:01;4.10;99.90
43151;DHT22;28755;51.478;5.702;2023-11-22T01:13:29;4.10;99.90
43151;DHT22;28755;51.478;5.702;2023-11-22T01:15:54;4.10;99.90
43151;DHT22;28755;51.478;5.702;2023-11-22T01:18:20;4.20;99.90
43151;DHT22;28755;51.478;5.702;2023-11-22T01:20:46;4.20;99.90
43151;DHT22;28755;51.478;5.702;2023-11-22T01:23:11;4.20;99.90
43151;DHT22;28755;51.478;5.702;2023-11-22T01:25:37;4.10;99.90
43151;DHT22;28755;51.478;5.702;2023-11-22T01:28:03;4.20;99.90
43151;DHT22;28755;51.478;5.702;2023-11-22T01:30:29;4.10;99.90
43151;DHT22;28755;51.478;5.702;2023-11-22T01:32:54;4.00;99.90
43151;DHT22;28755;51.478;5.702;2023-11-22T01:35:21;4.00;99.90
43151;DHT22;28755;51.478;5.702;2023-11-22T01:37:46;3.90;99.90
43151;DHT22;28755;51.478;5.702;2023-11-22T01:40:12;3.90;99.90
43151;DHT22;28755;51.478;5.702;2023-11-22T01:42:38;4.00;99.90
43151;DHT22;28755;51.478;5.702;2023-11-22T01:45:07;3.90;99.90
43151;DHT22;28755;51.478;5.702;2023-11-22T01:47:34;3.90;99.90
43151;DHT22;28755;51.478;5.702;2023-11-22T01:50:00;3.80;99.90
43151;DHT22;28755;51.478;5.702;2023-11-22T01:52:26;3.80;99.90
43151;DHT22;28755;51.478;5.702;2023-11-22T01:54:52;3.80;99.90
43151;DHT22;28755;51.478;5.702;2023-11-22T01:57:18;3.80;99.90
43151;DHT22;28755;51.478;5.702;2023-11-22T01:59:45;3.80;99.90
43151;DHT22;28755;51.478;5.702;2023-11-22T02:02:12;3.80;99.90
43151;DHT22;28755;51.478;5.702;2023-11-22T02:04:39;3.80;99.90
43151;DHT22;28755;51.478;5.702;2023-11-22T02:07:04;3.70;99.90
43151;DHT22;28755;51.478;5.702;2023-11-22T02:09:31;3.70;99.90
43151;DHT22;28755;51.478;5.702;2023-11-22T02:11:57;3.60;99.90
43151;DHT22;28755;51.478;5.702;2023-11-22T02:14:23;3.60;99.90
43151;DHT22;28755;51.478;5.702;2023-11-22T02:16:49;3.60;99.90
43151;DHT22;28755;51.478;5.702;2023-11-22T02:19:16;3.50;99.90
43151;DHT22;28755;51.478;5.702;2023-11-22T02:21:42;3.50;99.90
43151;DHT22;28755;51.478;5.702;2023-11-22T02:24:09;3.50;99.90
43151;DHT22;28755;51.478;5.702;2023-11-22T02:26:35;3.60;99.90
43151;DHT22;28755;51.478;5.702;2023-11-22T02:29:02;3.60;99.90
43151;DHT22;28755;51.478;5.702;2023-11-22T02:31:29;3.50;99.90
43151;DHT22;28755;51.478;5.702;2023-11-22T02:33:55;3.50;99.90
43151;DHT22;28755;51.478;5.702;2023-11-22T02:36:22;3.40;99.90
43151;DHT22;28755;51.478;5.702;2023-11-22T02:38:48;3.50;99.90
43151;DHT22;28755;51.478;5.702;2023-11-22T02:41:13;3.40;99.90
43151;DHT22;28755;51.478;5.702;2023-11-22T02:43:39;3.40;99.90
43151;DHT22;28755;51.478;5.702;2023-11-22T02:46:08;3.40;99.90
43151;DHT22;28755;51.478;5.702;2023-11-22T02:48:33;3.40;99.90
43151;DHT22;28755;51.478;5.702;2023-11-22T02:50:59;3.40;99.90
43151;DHT22;28755;51.478;5.702;2023-11-22T02:53:25;3.40;99.90
43151;DHT22;28755;51.478;5.702;2023-11-22T02:55:51;3.50;99.90
43151;DHT22;28755;51.478;5.702;2023-11-22T02:58:17;3.40;99.90
43151;DHT22;28755;51.478;5.702;2023-11-22T03:00:42;3.40;99.90
43151;DHT22;28755;51.478;5.702;2023-11-22T03:03:08;3.30;99.90
43151;DHT22;28755;51.478;5.702;2023-11-22T03:05:36;3.30;99.90
43151;DHT22;28755;51.478;5.702;2023-11-22T03:08:05;3.20;99.90
43151;DHT22;28755;51.478;5.702;2023-11-22T03:10:33;3.20;99.90
43151;DHT22;28755;51.478;5.702;2023-11-22T03:12:58;3.20;99.90
43151;DHT22;28755;51.478;5.702;2023-11-22T03:15:24;3.20;99.90
43151;DHT22;28755;51.478;5.702;2023-11-22T03:17:50;3.20;99.90
43151;DHT22;28755;51.478;5.702;2023-11-22T03:20:15;3.20;99.90
43151;DHT22;28755;51.478;5.702;2023-11-22T03:22:41;3.10;99.90
43151;DHT22;28755;51.478;5.702;2023-11-22T03:25:10;3.10;99.90
43151;DHT22;28755;51.478;5.702;2023-11-22T03:27:36;3.10;99.90
43151;DHT22;28755;51.478;5.702;2023-11-22T03:30:02;3.10;99.90
43151;DHT22;28755;51.478;5.702;2023-11-22T03:32:28;3.00;99.90
43151;DHT22;28755;51.478;5.702;2023-11-22T03:34:54;3.00;99.90
43151;DHT22;28755;51.478;5.702;2023-11-22T03:37:20;3.00;99.90
43151;DHT22;28755;51.478;5.702;2023-11-22T03:39:46;3.00;99.90
43151;DHT22;28755;51.478;5.702;2023-11-22T03:42:16;2.90;99.90
43151;DHT22;28755;51.478;5.702;2023-11-22T03:44:43;2.90;99.90
43151;DHT22;28755;51.478;5.702;2023-11-22T03:47:10;2.90;99.90
43151;DHT22;28755;51.478;5.702;2023-11-22T03:49:38;2.90;99.90
43151;DHT22;28755;51.478;5.702;2023-11-22T03:52:03;2.80;99.90
43151;DHT22;28755;51.478;5.702;2023-11-22T03:54:29;2.80;99.90
43151;DHT22;28755;51.478;5.702;2023-11-22T03:56:54;2.80;99.90
43151;DHT22;28755;51.478;5.702;2023-11-22T03:59:20;2.80;99.90
43151;DHT22;28755;51.478;5.702;2023-11-22T04:01:46;2.80;99.90
43151;DHT22;28755;51.478;5.702;2023-11-22T04:04:11;2.80;99.90
43151;DHT22;28755;51.478;5.702;2023-11-22T04:06:37;2.70;99.90
43151;DHT22;28755;51.478;5.702;2023-11-22T04:09:02;2.70;99.90
43151;DHT22;28755;51.478;5.702;2023-11-22T04:11:28;2.70;99.90
43151;DHT22;28755;51.478;5.702;2023-11-22T04:13:55;2.80;99.90
43151;DHT22;28755;51.478;5.702;2023-11-22T04:16:21;2.60;99.90
43151;DHT22;28755;51.478;5.702;2023-11-22T04:18:46;2.60;99.90
43151;DHT22;28755;51.478;5.702;2023-11-22T04:21:12;2.60;99.90
43151;DHT22;28755;51.478;5.702;2023-11-22T04:23:38;2.60;99.90
43151;DHT22;28755;51.478;5.702;2023-11-22T04:26:03;2.60;99.90
43151;DHT22;28755;51.478;5.702;2023-11-22T04:28:30;2.50;99.90
43151;DHT22;28755;51.478;5.702;2023-11-22T04:30:56;2.50;99.90
43151;DHT22;28755;51.478;5.702;2023-11-22T04:33:22;2.50;99.90
43151;DHT22;28755;51.478;5.702;2023-11-22T04:35:51;2.50;99.90
43151;DHT22;28755;51.478;5.702;2023-11-22T04:38:17;2.50;99.90
43151;DHT22;28755;51.478;5.702;2023-11-22T04:40:43;2.40;99.90
43151;DHT22;28755;51.478;5.702;2023-11-22T04:43:09;2.50;99.90
43151;DHT22;28755;51.478;5.702;2023-11-22T04:45:34;2.40;99.90
43151;DHT22;28755;51.478;5.702;2023-11-22T04:48:00;2.50;99.90
43151;DHT22;28755;51.478;5.702;2023-11-22T04:50:26;2.40;99.90
43151;DHT22;28755;51.478;5.702;2023-11-22T04:52:52;2.40;99.90
43151;DHT22;28755;51.478;5.702;2023-11-22T04:55:17;2.60;99.90
43151;DHT22;28755;51.478;5.702;2023-11-22T04:57:47;2.60;99.90
43151;DHT22;28755;51.478;5.702;2023-11-22T05:00:13;2.70;99.90
43151;DHT22;28755;51.478;5.702;2023-11-22T05:02:38;2.80;99.90
43151;DHT22;28755;51.478;5.702;2023-11-22T05:05:06;2.90;99.90
43151;DHT22;28755;51.478;5.702;2023-11-22T05:07:32;3.00;99.90
43151;DHT22;28755;51.478;5.702;2023-11-22T05:09:57;3.10;99.90
43151;DHT22;28755;51.478;5.702;2023-11-22T05:12:23;3.10;99.90
43151;DHT22;28755;51.478;5.702;2023-11-22T05:14:49;3.20;99.90
43151;DHT22;28755;51.478;5.702;2023-11-22T05:17:14;3.30;99.90
43151;DHT22;28755;51.478;5.702;2023-11-22T05:19:40;3.30;99.90
43151;DHT22;28755;51.478;5.702;2023-11-22T05:22:06;3.40;99.90
43151;DHT22;28755;51.478;5.702;2023-11-22T05:24:31;3.40;99.90
43151;DHT22;28755;51.478;5.702;2023-11-22T05:26:57;3.30;99.90
43151;DHT22;28755;51.478;5.702;2023-11-22T05:29:22;3.40;99.90
43151;DHT22;28755;51.478;5.702;2023-11-22T05:31:49;3.40;99.90
43151;DHT22;28755;51.478;5.702;2023-11-22T05:34:15;3.40;99.90
43151;DHT22;28755;51.478;5.702;2023-11-22T05:36:40;3.40;99.90
43151;DHT22;28755;51.478;5.702;2023-11-22T05:39:06;3.40;99.90
43151;DHT22;28755;51.478;5.702;2023-11-22T05:41:32;3.40;99.90
43151;DHT22;28755;51.478;5.702;2023-11-22T05:43:57;3.50;99.90
43151;DHT22;28755;51.478;5.702;2023-11-22T05:46:24;3.50;99.90
43151;DHT22;28755;51.478;5.702;2023-11-22T05:48:52;3.40;99.90
43151;DHT22;28755;51.478;5.702;2023-11-22T05:51:18;3.40;99.90
43151;DHT22;28755;51.478;5.702;2023-11-22T05:53:43;3.40;99.90
43151;DHT22;28755;51.478;5.702;2023-11-22T05:56:09;3.30;99.90
43151;DHT22;28755;51.478;5.702;2023-11-22T05:58:35;3.40;99.90
43151;DHT22;28755;51.478;5.702;2023-11-22T06:01:07;3.40;99.90
43151;DHT22;28755;51.478;5.702;2023-11-22T06:03:34;3.40;99.90
43151;DHT22;28755;51.478;5.702;2023-11-22T06:05:59;3.50;99.90
43151;DHT22;28755;51.478;5.702;2023-11-22T06:08:25;3.70;99.90
43151;DHT22;28755;51.478;5.702;2023-11-22T06:10:51;3.60;99.90
43151;DHT22;28755;51.478;5.702;2023-11-22T06:13:18;3.70;99.90
43151;DHT22;28755;51.478;5.702;2023-11-22T06:15:45;3.70;99.90
43151;DHT22;28755;51.478;5.702;2023-11-22T06:18:10;3.70;99.90
43151;DHT22;28755;51.478;5.702;2023-11-22T06:20:39;3.70;99.90
43151;DHT22;28755;51.478;5.702;2023-11-22T06:23:05;3.70;99.90
43151;DHT22;28755;51.478;5.702;2023-11-22T06:25:30;3.70;99.90
43151;DHT22;28755;51.478;5.702;2023-11-22T06:27:56;3.70;99.90
43151;DHT22;28755;51.478;5.702;2023-11-22T06:30:22;3.80;99.90
43151;DHT22;28755;51.478;5.702;2023-11-22T06:32:48;3.80;99.90
43151;DHT22;28755;51.478;5.702;2023-11-22T06:35:14;3.80;99.90
43151;DHT22;28755;51.478;5.702;2023-11-22T06:37:41;3.80;99.90
43151;DHT22;28755;51.478;5.702;2023-11-22T06:40:07;3.80;99.90
43151;DHT22;28755;51.478;5.702;2023-11-22T06:42:38;3.80;99.90
43151;DHT22;28755;51.478;5.702;2023-11-22T06:45:05;3.80;99.90
43151;DHT22;28755;51.478;5.702;2023-11-22T06:47:32;3.80;99.90
43151;DHT22;28755;51.478;5.702;2023-11-22T06:49:57;3.90;99.90
43151;DHT22;28755;51.478;5.702;2023-11-22T06:52:24;3.90;99.90
43151;DHT22;28755;51.478;5.702;2023-11-22T06:54:49;3.90;99.90
43151;DHT22;28755;51.478;5.702;2023-11-22T06:57:15;4.00;99.90
43151;DHT22;28755;51.478;5.702;2023-11-22T06:59:41;3.90;99.90
43151;DHT22;28755;51.478;5.702;2023-11-22T07:02:06;3.90;99.90
43151;DHT22;28755;51.478;5.702;2023-11-22T07:04:33;4.00;99.90
43151;DHT22;28755;51.478;5.702;2023-11-22T07:06:58;3.90;99.90
43151;DHT22;28755;51.478;5.702;2023-11-22T07:09:24;3.90;99.90
43151;DHT22;28755;51.478;5.702;2023-11-22T07:11:50;4.00;99.90
43151;DHT22;28755;51.478;5.702;2023-11-22T07:14:17;4.00;99.90
43151;DHT22;28755;51.478;5.702;2023-11-22T07:16:42;4.10;99.90
43151;DHT22;28755;51.478;5.702;2023-11-22T07:19:08;4.00;99.90
43151;DHT22;28755;51.478;5.702;2023-11-22T07:21:34;4.00;99.90
43151;DHT22;28755;51.478;5.702;2023-11-22T07:24:03;4.00;99.90
43151;DHT22;28755;51.478;5.702;2023-11-22T07:26:32;3.90;99.90
43151;DHT22;28755;51.478;5.702;2023-11-22T07:28:58;4.00;99.90
43151;DHT22;28755;51.478;5.702;2023-11-22T07:31:24;4.10;99.90
43151;DHT22;28755;51.478;5.702;2023-11-22T07:33:49;4.20;99.90
43151;DHT22;28755;51.478;5.702;2023-11-22T07:36:15;4.20;99.90
43151;DHT22;28755;51.478;5.702;2023-11-22T07:38:41;4.20;99.90
43151;DHT22;28755;51.478;5.702;2023-11-22T07:41:08;4.20;99.90
43151;DHT22;28755;51.478;5.702;2023-11-22T07:43:34;4.30;99.90
43151;DHT22;28755;51.478;5.702;2023-11-22T07:45:59;4.30;99.90
43151;DHT22;28755;51.478;5.702;2023-11-22T07:48:29;4.30;99.90
43151;DHT22;28755;51.478;5.702;2023-11-22T07:50:55;4.30;99.90
43151;DHT22;28755;51.478;5.702;2023-11-22T07:53:21;4.30;99.90
43151;DHT22;28755;51.478;5.702;2023-11-22T07:55:47;4.30;99.90
43151;DHT22;28755;51.478;5.702;2023-11-22T07:58:12;4.30;99.90
43151;DHT22;28755;51.478;5.702;2023-11-22T08:00:38;4.40;99.90
43151;DHT22;28755;51.478;5.702;2023-11-22T08:03:03;4.40;99.90
43151;DHT22;28755;51.478;5.702;2023-11-22T08:05:31;4.50;99.90
43151;DHT22;28755;51.478;5.702;2023-11-22T08:08:03;4.60;99.90
43151;DHT22;28755;51.478;5.702;2023-11-22T08:10:36;4.60;99.90
43151;DHT22;28755;51.478;5.702;2023-11-22T08:13:01;4.60;99.90
43151;DHT22;28755;51.478;5.702;2023-11-22T08:15:28;4.60;99.90
43151;DHT22;28755;51.478;5.702;2023-11-22T08:17:54;4.60;99.90
43151;DHT22;28755;51.478;5.702;2023-11-22T08:20:20;4.60;99.90
43151;DHT22;28755;51.478;5.702;2023-11-22T08:22:47;4.60;99.90
43151;DHT22;28755;51.478;5.702;2023-11-22T08:25:15;4.70;99.90
43151;DHT22;28755;51.478;5.702;2023-11-22T08:27:41;4.80;99.90
43151;DHT22;28755;51.478;5.702;2023-11-22T08:30:08;4.90;99.90
43151;DHT22;28755;51.478;5.702;2023-11-22T08:32:39;5.00;99.90
43151;DHT22;28755;51.478;5.702;2023-11-22T08:35:05;5.10;99.90
43151;DHT22;28755;51.478;5.702;2023-11-22T08:37:33;5.20;99.90
43151;DHT22;28755;51.478;5.702;2023-11-22T08:40:01;5.20;99.90
43151;DHT22;28755;51.478;5.702;2023-11-22T08:42:26;5.30;99.90
43151;DHT22;28755;51.478;5.702;2023-11-22T08:44:52;5.30;99.90
43151;DHT22;28755;51.478;5.702;2023-11-22T08:47:17;5.40;99.90
43151;DHT22;28755;51.478;5.702;2023-11-22T08:49:43;5.40;99.90
43151;DHT22;28755;51.478;5.702;2023-11-22T08:52:09;5.50;99.90
43151;DHT22;28755;51.478;5.702;2023-11-22T08:54:34;5.60;99.90
43151;DHT22;28755;51.478;5.702;2023-11-22T08:57:00;5.90;99.90
43151;DHT22;28755;51.478;5.702;2023-11-22T08:59:26;6.00;99.90
43151;DHT22;28755;51.478;5.702;2023-11-22T09:01:52;6.20;99.90
43151;DHT22;28755;51.478;5.702;2023-11-22T09:04:17;6.40;99.90
43151;DHT22;28755;51.478;5.702;2023-11-22T09:06:44;6.70;99.90
43151;DHT22;28755;51.478;5.702;2023-11-22T09:09:09;7.60;99.90
43151;DHT22;28755;51.478;5.702;2023-11-22T09:11:40;8.10;99.90
43151;DHT22;28755;51.478;5.702;2023-11-22T09:14:06;8.70;99.90
43151;DHT22;28755;51.478;5.702;2023-11-22T09:16:36;9.40;99.90
43151;DHT22;28755;51.478;5.702;2023-11-22T09:19:02;10.00;99.90
43151;DHT22;28755;51.478;5.702;2023-11-22T09:21:28;9.80;99.90
43151;DHT22;28755;51.478;5.702;2023-11-22T09:23:55;9.70;99.90
43151;DHT22;28755;51.478;5.702;2023-11-22T09:26:20;9.40;99.90
43151;DHT22;28755;51.478;5.702;2023-11-22T09:28:46;9.10;99.90
43151;DHT22;28755;51.478;5.702;2023-11-22T09:31:11;8.90;99.90
43151;DHT22;28755;51.478;5.702;2023-11-22T09:33:43;8.80;99.90
43151;DHT22;28755;51.478;5.702;2023-11-22T09:36:09;9.10;99.90
43151;DHT22;28755;51.478;5.702;2023-11-22T09:38:34;9.30;99.90
43151;DHT22;28755;51.478;5.702;2023-11-22T09:41:00;9.50;99.90
43151;DHT22;28755;51.478;5.702;2023-11-22T09:43:28;9.80;99.90
43151;DHT22;28755;51.478;5.702;2023-11-22T09:45:54;10.00;99.90
43151;DHT22;28755;51.478;5.702;2023-11-22T09:48:21;9.50;99.90
43151;DHT22;28755;51.478;5.702;2023-11-22T09:51:28;9.40;99.90
43151;DHT22;28755;51.478;5.702;2023-11-22T09:53:52;9.40;99.90
43151;DHT22;28755;51.478;5.702;2023-11-22T09:56:20;9.50;99.90
43151;DHT22;28755;51.478;5.702;2023-11-22T09:58:46;9.60;99.90
43151;DHT22;28755;51.478;5.702;2023-11-22T10:01:17;9.90;99.90
43151;DHT22;28755;51.478;5.702;2023-11-22T10:03:42;10.40;99.90
43151;DHT22;28755;51.478;5.702;2023-11-22T10:06:08;10.90;99.90
43151;DHT22;28755;51.478;5.702;2023-11-22T10:08:34;11.30;99.90
43151;DHT22;28755;51.478;5.702;2023-11-22T10:11:01;12.10;99.90
43151;DHT22;28755;51.478;5.702;2023-11-22T10:13:27;13.00;99.90
43151;DHT22;28755;51.478;5.702;2023-11-22T10:15:53;13.60;99.90
43151;DHT22;28755;51.478;5.702;2023-11-22T10:18:20;13.50;99.90
43151;DHT22;28755;51.478;5.702;2023-11-22T10:20:48;13.30;99.90
43151;DHT22;28755;51.478;5.702;2023-11-22T10:23:15;12.90;99.90
43151;DHT22;28755;51.478;5.702;2023-11-22T10:25:53;12.50;99.90
43151;DHT22;28755;51.478;5.702;2023-11-22T10:28:20;12.20;99.90
43151;DHT22;28755;51.478;5.702;2023-11-22T10:30:47;11.50;99.90
43151;DHT22;28755;51.478;5.702;2023-11-22T10:33:14;10.60;99.90
43151;DHT22;28755;51.478;5.702;2023-11-22T10:35:47;10.40;99.90
43151;DHT22;28755;51.478;5.702;2023-11-22T10:38:14;10.10;99.90
43151;DHT22;28755;51.478;5.702;2023-11-22T10:40:40;10.50;99.90
43151;DHT22;28755;51.478;5.702;2023-11-22T10:43:07;10.90;99.90
43151;DHT22;28755;51.478;5.702;2023-11-22T10:45:34;11.00;99.90
43151;DHT22;28755;51.478;5.702;2023-11-22T10:48:02;10.60;99.90
43151;DHT22;28755;51.478;5.702;2023-11-22T10:50:28;9.90;99.90
43151;DHT22;28755;51.478;5.702;2023-11-22T10:52:57;9.20;99.90
43151;DHT22;28755;51.478;5.702;2023-11-22T10:55:32;9.00;99.90
43151;DHT22;28755;51.478;5.702;2023-11-22T10:58:02;9.10;99.90
43151;DHT22;28755;51.478;5.702;2023-11-22T11:00:31;9.40;99.90
43151;DHT22;28755;51.478;5.702;2023-11-22T11:03:08;9.60;99.90
43151;DHT22;28755;51.478;5.702;2023-11-22T11:05:35;10.20;99.90
43151;DHT22;28755;51.478;5.702;2023-11-22T11:08:12;10.60;99.90
43151;DHT22;28755;51.478;5.702;2023-11-22T11:10:43;10.80;99.90
43151;DHT22;28755;51.478;5.702;2023-11-22T11:13:12;11.10;99.90
43151;DHT22;28755;51.478;5.702;2023-11-22T11:15:39;11.00;99.90
43151;DHT22;28755;51.478;5.702;2023-11-22T11:18:06;11.40;99.90
43151;DHT22;28755;51.478;5.702;2023-11-22T11:20:56;12.10;99.90
43151;DHT22;28755;51.478;5.702;2023-11-22T11:23:26;12.70;99.90
43151;DHT22;28755;51.478;5.702;2023-11-22T11:26:09;12.40;99.90
43151;DHT22;28755;51.478;5.702;2023-11-22T11:28:43;11.90;99.90
43151;DHT22;28755;51.478;5.702;2023-11-22T11:31:09;11.80;99.90
43151;DHT22;28755;51.478;5.702;2023-11-22T11:33:53;11.50;99.90
43151;DHT22;28755;51.478;5.702;2023-11-22T11:36:29;11.50;99.90
43151;DHT22;28755;51.478;5.702;2023-11-22T11:38:58;11.40;99.90
43151;DHT22;28755;51.478;5.702;2023-11-22T11:41:27;11.30;99.90
43151;DHT22;28755;51.478;5.702;2023-11-22T11:43:55;10.90;99.90
43151;DHT22;28755;51.478;5.702;2023-11-22T11:46:21;11.00;99.90
43151;DHT22;28755;51.478;5.702;2023-11-22T11:48:50;11.00;99.90
43151;DHT22;28755;51.478;5.702;2023-11-22T11:51:17;11.40;99.90
43151;DHT22;28755;51.478;5.702;2023-11-22T11:53:44;11.60;99.90
43151;DHT22;28755;51.478;5.702;2023-11-22T11:56:10;11.60;99.90
43151;DHT22;28755;51.478;5.702;2023-11-22T11:58:36;11.40;99.90
43151;DHT22;28755;51.478;5.702;2023-11-22T12:01:04;11.10;99.90
43151;DHT22;28755;51.478;5.702;2023-11-22T12:03:30;10.90;99.90
43151;DHT22;28755;51.478;5.702;2023-11-22T12:05:55;10.30;99.90
43151;DHT22;28755;51.478;5.702;2023-11-22T12:08:21;9.90;99.90
43151;DHT22;28755;51.478;5.702;2023-11-22T12:10:47;9.50;99.90
43151;DHT22;28755;51.478;5.702;2023-11-22T12:13:20;9.00;99.90
43151;DHT22;28755;51.478;5.702;2023-11-22T12:15:47;8.80;99.90
43151;DHT22;28755;51.478;5.702;2023-11-22T12:18:13;8.50;99.90
43151;DHT22;28755;51.478;5.702;2023-11-22T12:20:39;8.50;99.90
43151;DHT22;28755;51.478;5.702;2023-11-22T12:23:05;8.50;99.90
43151;DHT22;28755;51.478;5.702;2023-11-22T12:25:32;8.70;99.90
43151;DHT22;28755;51.478;5.702;2023-11-22T12:27:58;8.90;99.90
43151;DHT22;28755;51.478;5.702;2023-11-22T12:30:33;8.90;99.90
43151;DHT22;28755;51.478;5.702;2023-11-22T12:33:04;9.00;99.90
43151;DHT22;28755;51.478;5.702;2023-11-22T12:35:31;9.40;99.90
43151;DHT22;28755;51.478;5.702;2023-11-22T12:38:02;10.00;99.90
43151;DHT22;28755;51.478;5.702;2023-11-22T12:40:31;10.80;99.90
43151;DHT22;28755;51.478;5.702;2023-11-22T12:42:57;10.90;99.90
43151;DHT22;28755;51.478;5.702;2023-11-22T12:45:25;11.00;99.90
43151;DHT22;28755;51.478;5.702;2023-11-22T12:47:51;10.70;99.90
43151;DHT22;28755;51.478;5.702;2023-11-22T12:50:36;10.30;99.90
43151;DHT22;28755;51.478;5.702;2023-11-22T12:53:13;9.70;99.90
43151;DHT22;28755;51.478;5.702;2023-11-22T12:55:46;9.70;99.90
43151;DHT22;28755;51.478;5.702;2023-11-22T12:58:13;9.90;99.90
43151;DHT22;28755;51.478;5.702;2023-11-22T13:00:39;10.30;99.90
43151;DHT22;28755;51.478;5.702;2023-11-22T13:03:09;10.80;99.90
43151;DHT22;28755;51.478;5.702;2023-11-22T13:05:38;11.50;99.90
43151;DHT22;28755;51.478;5.702;2023-11-22T13:08:04;11.80;99.90
43151;DHT22;28755;51.478;5.702;2023-11-22T13:10:30;11.20;99.90
43151;DHT22;28755;51.478;5.702;2023-11-22T13:12:56;10.80;99.90
43151;DHT22;28755;51.478;5.702;2023-11-22T13:15:22;10.50;99.90
43151;DHT22;28755;51.478;5.702;2023-11-22T13:17:55;10.10;99.90
43151;DHT22;28755;51.478;5.702;2023-11-22T13:20:23;9.70;99.90
43151;DHT22;28755;51.478;5.702;2023-11-22T13:22:49;9.40;99.90
43151;DHT22;28755;51.478;5.702;2023-11-22T13:25:14;9.50;99.90
43151;DHT22;28755;51.478;5.702;2023-11-22T13:27:42;10.10;99.90
43151;DHT22;28755;51.478;5.702;2023-11-22T13:30:08;10.60;99.90
43151;DHT22;28755;51.478;5.702;2023-11-22T13:32:33;10.70;99.90
43151;DHT22;28755;51.478;5.702;2023-11-22T13:35:00;10.40;99.90
43151;DHT22;28755;51.478;5.702;2023-11-22T13:37:26;10.20;99.90
43151;DHT22;28755;51.478;5.702;2023-11-22T13:39:52;9.90;99.90
43151;DHT22;28755;51.478;5.702;2023-11-22T13:42:18;9.50;99.90
43151;DHT22;28755;51.478;5.702;2023-11-22T13:44:44;9.30;99.90
43151;DHT22;28755;51.478;5.702;2023-11-22T13:47:10;9.30;99.90
43151;DHT22;28755;51.478;5.702;2023-11-22T13:49:36;9.10;99.90
43151;DHT22;28755;51.478;5.702;2023-11-22T13:52:04;9.30;99.90
43151;DHT22;28755;51.478;5.702;2023-11-22T13:54:30;9.20;99.90
43151;DHT22;28755;51.478;5.702;2023-11-22T13:56:57;9.10;99.90
43151;DHT22;28755;51.478;5.702;2023-11-22T13:59:23;8.90;99.90
43151;DHT22;28755;51.478;5.702;2023-11-22T14:01:49;8.90;99.90
43151;DHT22;28755;51.478;5.702;2023-11-22T14:04:15;8.90;99.90
43151;DHT22;28755;51.478;5.702;2023-11-22T14:06:41;8.80;99.90
43151;DHT22;28755;51.478;5.702;2023-11-22T14:09:06;8.60;99.90
43151;DHT22;28755;51.478;5.702;2023-11-22T14:11:34;8.20;99.90
43151;DHT22;28755;51.478;5.702;2023-11-22T14:14:01;8.10;99.90
43151;DHT22;28755;51.478;5.702;2023-11-22T14:16:29;7.80;99.90
43151;DHT22;28755;51.478;5.702;2023-11-22T14:18:56;7.80;99.90
43151;DHT22;28755;51.478;5.702;2023-11-22T14:21:23;7.60;99.90
43151;DHT22;28755;51.478;5.702;2023-11-22T14:23:50;7.50;99.90
43151;DHT22;28755;51.478;5.702;2023-11-22T14:26:15;7.40;99.90
43151;DHT22;28755;51.478;5.702;2023-11-22T14:28:41;7.40;99.90
43151;DHT22;28755;51.478;5.702;2023-11-22T14:31:08;7.40;99.90
43151;DHT22;28755;51.478;5.702;2023-11-22T14:33:34;7.20;99.90
43151;DHT22;28755;51.478;5.702;2023-11-22T14:36:00;7.20;99.90
43151;DHT22;28755;51.478;5.702;2023-11-22T14:38:26;7.30;99.90
43151;DHT22;28755;51.478;5.702;2023-11-22T14:40:52;7.10;99.90
43151;DHT22;28755;51.478;5.702;2023-11-22T14:43:17;7.10;99.90
43151;DHT22;28755;51.478;5.702;2023-11-22T14:45:43;7.10;99.90
43151;DHT22;28755;51.478;5.702;2023-11-22T14:48:09;7.00;99.90
43151;DHT22;28755;51.478;5.702;2023-11-22T14:50:36;7.00;99.90
43151;DHT22;28755;51.478;5.702;2023-11-22T14:53:01;7.00;99.90
43151;DHT22;28755;51.478;5.702;2023-11-22T14:55:27;7.00;99.90
43151;DHT22;28755;51.478;5.702;2023-11-22T14:57:53;6.90;99.90
43151;DHT22;28755;51.478;5.702;2023-11-22T15:00:23;6.80;99.90
43151;DHT22;28755;51.478;5.702;2023-11-22T15:02:48;6.90;99.90
43151;DHT22;28755;51.478;5.702;2023-11-22T15:05:21;6.80;99.90
43151;DHT22;28755;51.478;5.702;2023-11-22T15:07:47;6.90;99.90
43151;DHT22;28755;51.478;5.702;2023-11-22T15:10:20;6.90;99.90
43151;DHT22;28755;51.478;5.702;2023-11-22T15:12:46;6.90;99.90
43151;DHT22;28755;51.478;5.702;2023-11-22T15:15:13;6.90;99.90
43151;DHT22;28755;51.478;5.702;2023-11-22T15:17:39;6.80;99.90
43151;DHT22;28755;51.478;5.702;2023-11-22T15:20:06;6.90;99.90
43151;DHT22;28755;51.478;5.702;2023-11-22T15:22:37;6.80;99.90
43151;DHT22;28755;51.478;5.702;2023-11-22T15:25:03;6.80;99.90
43151;DHT22;28755;51.478;5.702;2023-11-22T15:27:30;6.60;99.90
43151;DHT22;28755;51.478;5.702;2023-11-22T15:29:56;6.50;99.90
43151;DHT22;28755;51.478;5.702;2023-11-22T15:32:22;6.50;99.90
43151;DHT22;28755;51.478;5.702;2023-11-22T15:34:48;6.50;99.90
43151;DHT22;28755;51.478;5.702;2023-11-22T15:37:13;6.50;99.90
43151;DHT22;28755;51.478;5.702;2023-11-22T15:39:41;6.60;99.90